Time;durP1;ratioP1;P1;durP2;ratioP2;P2;SDS_P1;SDS_P2;PMS_P1;PMS_P2;Temp;Humidity;BMP_temperature;BMP_pressure;BME280_temperature;BME280_humidity;BME280_pressure;Samples;Min_cycle;Max_cycle;Signal;HPM_P1;HPM_P2
2023/06/27 00:02:13;;;;;;;1.52;0.70;;;;;;;27.56;41.65;102092.97;5043477;28;20060;-32
2023/06/27 00:04:39;;;;;;;0.82;0.60;;;;;;;27.55;41.85;102097.56;5043491;28;20053;-31
2023/06/27 00:07:09;;;;;;;0.90;0.70;;;;;;;27.55;41.81;102102.19;5038210;28;20048;-32
2023/06/27 00:09:36;;;;;;;1.50;0.60;;;;;;;27.54;41.98;102098.63;5045660;28;20047;-32
2023/06/27 00:12:03;;;;;;;1.38;0.60;;;;;;;27.54;41.59;102104.06;5051761;28;20057;-32
2023/06/27 00:14:29;;;;;;;0.73;0.68;;;;;;;27.54;41.85;102104.06;5051816;28;20106;-31
2023/06/27 00:16:57;;;;;;;1.63;0.80;;;;;;;27.54;42.07;102108.66;5052209;28;20147;-32
2023/06/27 00:19:24;;;;;;;1.10;0.65;;;;;;;27.53;42.03;102099.63;5051667;28;20053;-32
2023/06/27 00:21:50;;;;;;;1.48;0.80;;;;;;;27.52;42.00;102097.94;5050495;28;20145;-31
2023/06/27 00:24:17;;;;;;;2.13;0.80;;;;;;;27.52;41.46;102094.38;5048969;28;20179;-32
2023/06/27 00:26:43;;;;;;;1.45;0.85;;;;;;;27.51;41.95;102098.97;5041130;28;20084;-31
2023/06/27 00:29:10;;;;;;;1.98;0.73;;;;;;;27.51;41.70;102092.69;5037924;28;20644;-31
2023/06/27 00:31:36;;;;;;;0.77;0.50;;;;;;;27.50;41.80;102091.84;5037218;28;20057;-32
2023/06/27 00:34:03;;;;;;;2.28;0.70;;;;;;;27.50;41.75;102094.56;5037767;28;20049;-31
2023/06/27 00:36:30;;;;;;;1.08;0.77;;;;;;;27.49;41.97;102089.28;5039253;28;20060;-31
2023/06/27 00:38:56;;;;;;;1.42;0.80;;;;;;;27.48;41.75;102093.06;5037854;28;20132;-32
2023/06/27 00:41:23;;;;;;;1.17;0.52;;;;;;;27.47;41.99;102094.94;5036415;28;20075;-31
2023/06/27 00:43:50;;;;;;;1.45;0.95;;;;;;;27.47;42.04;102097.66;5043258;28;20100;-31
2023/06/27 00:46:33;;;;;;;1.63;0.80;;;;;;;27.45;41.88;102085.25;5037098;28;20076;-33
2023/06/27 00:49:00;;;;;;;1.48;0.70;;;;;;;27.46;41.60;102095.13;5043790;28;20137;-33
2023/06/27 00:51:27;;;;;;;0.95;0.77;;;;;;;27.45;42.12;102091.53;5038287;28;20484;-32
2023/06/27 00:53:54;;;;;;;1.70;0.68;;;;;;;27.44;41.39;102091.75;5042633;28;20049;-32
2023/06/27 00:56:20;;;;;;;1.80;0.85;;;;;;;27.44;42.17;102091.75;5032892;28;20429;-31
2023/06/27 00:58:47;;;;;;;1.15;0.82;;;;;;;27.43;41.77;102084.63;5035684;28;20041;-32
2023/06/27 01:01:13;;;;;;;2.72;1.00;;;;;;;27.43;41.75;102087.34;5039941;28;20053;-32
2023/06/27 01:03:40;;;;;;;1.33;0.70;;;;;;;27.42;42.05;102086.50;5039979;28;20045;-32
2023/06/27 01:06:17;;;;;;;1.50;1.00;;;;;;;27.40;41.62;102084.97;5039524;28;20076;-32
2023/06/27 01:08:50;;;;;;;2.55;0.80;;;;;;;27.40;41.72;102082.25;5042247;28;20456;-31
2023/06/27 01:11:25;;;;;;;1.65;0.70;;;;;;;27.39;41.64;102081.41;5036750;28;20144;-32
2023/06/27 01:13:56;;;;;;;1.23;0.82;;;;;;;27.38;41.91;102079.72;5038334;28;20446;-32
2023/06/27 01:16:28;;;;;;;1.23;0.70;;;;;;;27.38;41.58;102084.31;5037205;28;20111;-32
2023/06/27 01:18:56;;;;;;;2.15;0.90;;;;;;;27.37;41.81;102080.72;5038126;28;20380;-31
2023/06/27 01:21:25;;;;;;;1.40;0.90;;;;;;;27.36;42.01;102087.22;5036413;28;20144;-32
2023/06/27 01:23:58;;;;;;;2.67;0.98;;;;;;;27.35;41.74;102087.41;5038064;28;20057;-31
2023/06/27 01:26:27;;;;;;;1.10;0.80;;;;;;;27.34;41.95;102089.31;5072401;28;20076;-32
2023/06/27 01:28:54;;;;;;;2.28;0.85;;;;;;;27.34;41.93;102085.69;5038274;28;20037;-31
2023/06/27 01:31:39;;;;;;;1.83;0.90;;;;;;;27.32;42.01;102085.91;5040654;28;20132;-32
2023/06/27 01:34:36;;;;;;;2.70;1.00;;;;;;;27.31;41.73;102086.94;5043033;28;20144;-32
2023/06/27 01:37:11;;;;;;;1.75;0.85;;;;;;;27.30;41.65;102077.94;5043963;28;20110;-31
2023/06/27 01:39:53;;;;;;;3.25;1.10;;;;;;;27.29;42.20;102072.66;5044591;28;20082;-32
2023/06/27 01:42:27;;;;;;;2.35;0.90;;;;;;;27.29;41.64;102069.94;5043447;28;20048;-32
2023/06/27 01:44:54;;;;;;;1.20;0.90;;;;;;;27.29;42.06;102068.03;5042394;28;20060;-32
2023/06/27 01:47:22;;;;;;;0.90;0.65;;;;;;;27.29;42.07;102069.94;5046409;28;20069;-32
2023/06/27 01:49:50;;;;;;;2.42;0.80;;;;;;;27.28;42.01;102073.69;5043793;28;20107;-33
2023/06/27 01:52:19;;;;;;;2.65;1.10;;;;;;;27.27;41.79;102078.28;5045417;28;20106;-32
2023/06/27 01:54:45;;;;;;;2.38;1.20;;;;;;;27.27;42.19;102080.19;5048215;28;20080;-31
2023/06/27 01:57:12;;;;;;;1.02;0.75;;;;;;;27.27;42.08;102074.72;5044325;28;20048;-31
2023/06/27 01:59:39;;;;;;;1.17;0.70;;;;;;;27.26;41.85;102081.22;5042545;28;20257;-31
2023/06/27 02:02:06;;;;;;;1.80;0.85;;;;;;;27.25;42.17;102082.22;5044405;28;20049;-32
2023/06/27 02:04:33;;;;;;;1.48;0.80;;;;;;;27.25;41.64;102090.38;5044875;28;20084;-32
2023/06/27 02:06:59;;;;;;;1.60;0.70;;;;;;;27.24;42.32;102086.81;5042844;28;20060;-31
2023/06/27 02:09:26;;;;;;;1.77;0.95;;;;;;;27.24;42.40;102081.38;5044321;28;20038;-31
2023/06/27 02:11:53;;;;;;;1.83;0.80;;;;;;;27.25;42.13;102087.66;5042648;28;20053;-32
2023/06/27 02:14:19;;;;;;;2.13;0.80;;;;;;;27.24;42.35;102091.44;5035632;28;20088;-31
2023/06/27 02:16:46;;;;;;;1.52;0.75;;;;;;;27.23;42.01;102078.84;5041865;28;20057;-31
2023/06/27 02:19:12;;;;;;;2.25;0.93;;;;;;;27.22;41.95;102080.72;5040793;28;20049;-31
2023/06/27 02:21:39;;;;;;;1.90;0.80;;;;;;;27.22;42.28;102074.44;5040780;28;20140;-31
2023/06/27 02:24:06;;;;;;;1.98;1.00;;;;;;;27.21;42.12;102070.00;5039290;28;20106;-32
2023/06/27 02:26:32;;;;;;;1.63;0.70;;;;;;;27.20;42.44;102071.91;5035266;28;20115;-32
2023/06/27 02:28:59;;;;;;;2.65;0.90;;;;;;;27.20;42.24;102085.50;5039873;28;20079;-32
2023/06/27 02:31:26;;;;;;;2.15;0.80;;;;;;;27.20;41.92;102077.34;5039549;28;20079;-32
2023/06/27 02:33:52;;;;;;;1.10;0.63;;;;;;;27.20;42.38;102071.91;5035795;28;20068;-32
2023/06/27 02:36:19;;;;;;;3.00;0.93;;;;;;;27.19;42.05;102066.66;5033792;28;20174;-31
2023/06/27 02:38:45;;;;;;;1.35;0.85;;;;;;;27.18;42.25;102064.97;5034678;28;20084;-31
2023/06/27 02:41:12;;;;;;;1.33;0.80;;;;;;;27.17;42.29;102061.38;5036930;28;20490;-31
2023/06/27 02:43:39;;;;;;;2.50;1.05;;;;;;;27.17;42.11;102068.69;5036159;28;20136;-32
2023/06/27 02:46:06;;;;;;;1.83;0.93;;;;;;;27.17;42.00;102071.41;5035899;28;20103;-32
2023/06/27 02:48:32;;;;;;;2.25;0.93;;;;;;;27.16;42.08;102065.13;5039158;28;20041;-32
2023/06/27 02:50:59;;;;;;;1.00;0.75;;;;;;;27.15;42.26;102066.16;5036631;28;20111;-31
2023/06/27 02:53:26;;;;;;;1.88;0.90;;;;;;;27.15;42.45;102071.63;5036370;28;20053;-32
2023/06/27 02:55:52;;;;;;;0.82;0.70;;;;;;;27.14;42.25;102075.38;5038240;28;20115;-31
2023/06/27 02:58:19;;;;;;;1.63;0.60;;;;;;;27.14;42.42;102078.09;5036690;28;20055;-31
2023/06/27 03:00:45;;;;;;;1.73;0.70;;;;;;;27.13;42.32;102073.66;5044122;28;20050;-31
2023/06/27 03:03:12;;;;;;;1.70;1.00;;;;;;;27.14;42.12;102066.38;5039140;28;20060;-31
2023/06/27 03:05:39;;;;;;;2.42;0.80;;;;;;;27.13;42.44;102062.75;5038087;28;20057;-32
2023/06/27 03:08:06;;;;;;;1.42;0.95;;;;;;;27.13;41.96;102061.94;5040322;28;20120;-30
2023/06/27 03:10:33;;;;;;;1.08;0.82;;;;;;;27.14;42.35;102071.81;5037853;28;20082;-31
2023/06/27 03:13:00;;;;;;;1.13;0.73;;;;;;;27.13;42.43;102072.81;5031013;28;20056;-31
2023/06/27 03:15:27;;;;;;;2.17;1.00;;;;;;;27.13;42.23;102078.25;5035686;28;20107;-31
2023/06/27 03:17:53;;;;;;;2.15;0.95;;;;;;;27.12;42.62;102084.75;5040441;28;20365;-31
2023/06/27 03:20:21;;;;;;;1.75;0.70;;;;;;;27.12;42.29;102074.69;5039406;28;20459;-31
2023/06/27 03:22:47;;;;;;;1.75;0.80;;;;;;;27.12;42.27;102076.56;5038770;28;20445;-32
2023/06/27 03:25:14;;;;;;;1.25;0.82;;;;;;;27.11;42.21;102075.72;5045038;28;20136;-31
2023/06/27 03:27:41;;;;;;;1.52;0.98;;;;;;;27.11;42.26;102072.16;5043844;28;20098;-31
2023/06/27 03:30:09;;;;;;;1.13;1.00;;;;;;;27.10;42.47;102079.50;5043460;28;20087;-31
2023/06/27 03:32:36;;;;;;;1.45;0.90;;;;;;;27.10;42.44;102075.88;5046615;28;20130;-31
2023/06/27 03:35:03;;;;;;;1.67;1.00;;;;;;;27.09;42.29;102075.03;5043480;28;20371;-32
2023/06/27 03:37:29;;;;;;;2.67;0.75;;;;;;;27.08;42.36;102078.78;5045863;28;20291;-31
2023/06/27 03:39:56;;;;;;;2.30;1.02;;;;;;;27.08;42.46;102076.91;5045395;28;20084;-32
2023/06/27 03:42:23;;;;;;;1.63;0.80;;;;;;;27.07;42.64;102072.50;5045617;28;20119;-31
2023/06/27 03:44:50;;;;;;;1.98;1.05;;;;;;;27.07;42.39;102071.66;5045040;28;20061;-31
2023/06/27 03:47:16;;;;;;;1.33;0.68;;;;;;;27.06;42.51;102068.09;5043804;28;20057;-31
2023/06/27 03:49:43;;;;;;;2.20;0.90;;;;;;;27.05;42.28;102063.66;5044506;28;20452;-32
2023/06/27 03:52:10;;;;;;;1.65;0.98;;;;;;;27.06;42.74;102067.25;5035711;28;20052;-32
2023/06/27 03:54:37;;;;;;;1.73;1.00;;;;;;;27.05;42.07;102077.25;5043383;28;20303;-30
2023/06/27 03:57:03;;;;;;;2.03;0.90;;;;;;;27.05;42.53;102071.81;5042298;28;20054;-31
2023/06/27 03:59:30;;;;;;;2.83;0.95;;;;;;;27.04;42.80;102070.13;5042307;28;20063;-31
2023/06/27 04:01:57;;;;;;;1.20;0.70;;;;;;;27.04;42.18;102075.56;5045873;28;20057;-31
2023/06/27 04:04:23;;;;;;;2.65;0.90;;;;;;;27.04;42.53;102075.56;5034894;28;20053;-31
2023/06/27 04:06:50;;;;;;;3.55;1.10;;;;;;;27.04;42.28;102077.47;5038821;28;20103;-32
2023/06/27 04:09:17;;;;;;;1.65;1.10;;;;;;;27.03;42.06;102070.34;5042993;28;20057;-31
2023/06/27 04:11:43;;;;;;;2.70;0.70;;;;;;;27.03;42.83;102076.63;5040104;28;20416;-31
2023/06/27 04:14:10;;;;;;;2.72;0.82;;;;;;;27.03;42.08;102084.78;5037065;28;20465;-32
2023/06/27 04:16:36;;;;;;;3.08;0.93;;;;;;;27.03;42.21;102079.34;5039336;28;20364;-31
2023/06/27 04:19:03;;;;;;;2.63;1.05;;;;;;;27.02;42.48;102080.38;5034917;28;20053;-31
2023/06/27 04:21:30;;;;;;;5.50;1.15;;;;;;;27.03;42.58;102078.50;5041856;28;20136;-32
2023/06/27 04:23:56;;;;;;;1.58;0.90;;;;;;;27.01;42.30;102075.94;5034393;28;20080;-33
2023/06/27 04:26:25;;;;;;;3.50;1.13;;;;;;;27.01;42.26;102073.22;5039942;28;20061;-31
2023/06/27 04:28:52;;;;;;;2.03;0.82;;;;;;;27.01;42.39;102072.38;5035151;28;20049;-31
2023/06/27 04:31:18;;;;;;;1.58;0.75;;;;;;;27.00;42.70;102076.97;5042143;28;20041;-31
2023/06/27 04:33:45;;;;;;;2.38;1.15;;;;;;;27.01;42.31;102080.53;5039159;28;20079;-31
2023/06/27 04:36:15;;;;;;;3.35;0.80;;;;;;;27.00;42.47;102084.31;5041112;28;20140;-31
2023/06/27 04:38:43;;;;;;;2.45;0.88;;;;;;;27.00;42.43;102085.13;5039577;28;20045;-31
2023/06/27 04:41:10;;;;;;;2.47;0.88;;;;;;;27.00;42.51;102101.47;5064621;28;20476;-32
2023/06/27 04:43:40;;;;;;;1.73;0.88;;;;;;;27.00;42.31;102096.03;5041200;28;20076;-31
2023/06/27 04:46:07;;;;;;;1.85;0.80;;;;;;;26.99;42.44;102094.34;5042190;28;20069;-31
2023/06/27 04:48:34;;;;;;;2.50;1.30;;;;;;;26.98;42.49;102098.09;5042948;28;20107;-32
2023/06/27 04:51:00;;;;;;;3.20;0.90;;;;;;;26.97;42.65;102101.81;5040215;28;20140;-31
2023/06/27 04:53:30;;;;;;;1.55;0.85;;;;;;;26.99;42.73;102093.50;5044261;28;20060;-31
2023/06/27 04:55:57;;;;;;;2.58;0.98;;;;;;;26.97;42.71;102104.56;5039444;28;20076;-31
2023/06/27 04:58:23;;;;;;;3.03;0.90;;;;;;;26.97;42.64;102096.38;5038562;28;20099;-31
2023/06/27 05:00:51;;;;;;;1.30;0.70;;;;;;;26.97;42.70;102100.97;5043480;28;20453;-32
2023/06/27 05:03:20;;;;;;;2.22;0.90;;;;;;;26.97;42.34;102100.97;5040927;28;20128;-31
2023/06/27 05:05:48;;;;;;;1.58;1.00;;;;;;;26.96;42.29;102094.69;5036352;28;20088;-31
2023/06/27 05:08:16;;;;;;;1.00;0.80;;;;;;;26.96;42.56;102093.84;5041694;28;20068;-32
2023/06/27 05:10:43;;;;;;;0.77;0.55;;;;;;;26.95;42.51;102093.00;5041817;28;20045;-31
2023/06/27 05:13:12;;;;;;;1.60;0.75;;;;;;;26.95;42.58;102094.91;5040379;28;20447;-31
2023/06/27 05:15:38;;;;;;;1.90;0.80;;;;;;;26.95;42.62;102101.19;5041814;28;20055;-31
2023/06/27 05:18:08;;;;;;;1.75;1.00;;;;;;;26.95;42.40;102094.91;5041213;28;20321;-31
2023/06/27 05:20:35;;;;;;;2.17;0.88;;;;;;;26.95;42.62;102095.75;5038050;28;20044;-31
2023/06/27 05:23:02;;;;;;;2.13;0.70;;;;;;;26.95;42.49;102097.63;5039845;28;20088;-30
2023/06/27 05:25:30;;;;;;;2.00;0.70;;;;;;;26.96;42.58;102093.84;5040237;28;20092;-31
2023/06/27 05:27:56;;;;;;;2.88;1.17;;;;;;;26.96;42.87;102089.25;5037497;28;20060;-31
2023/06/27 05:30:23;;;;;;;1.85;1.05;;;;;;;26.97;42.46;102104.56;5038373;28;20124;-31
2023/06/27 05:32:50;;;;;;;1.30;0.80;;;;;;;26.96;42.59;102097.41;5037312;28;20084;-31
2023/06/27 05:35:16;;;;;;;1.58;0.75;;;;;;;26.97;42.73;102098.25;5037641;28;20056;-31
2023/06/27 05:37:43;;;;;;;2.50;0.90;;;;;;;26.98;42.66;102097.25;5037250;28;20515;-33
2023/06/27 05:40:11;;;;;;;1.13;0.80;;;;;;;26.99;42.17;102101.66;5034756;28;20477;-33
2023/06/27 05:42:38;;;;;;;2.05;0.90;;;;;;;27.00;42.49;102103.34;5072299;28;20049;-30
2023/06/27 05:45:05;;;;;;;3.60;0.90;;;;;;;27.01;42.56;102107.75;5038469;28;20327;-34
2023/06/27 05:47:32;;;;;;;1.60;0.93;;;;;;;27.03;42.47;102108.44;5038715;28;20053;-33
2023/06/27 05:49:59;;;;;;;1.23;0.57;;;;;;;27.04;42.47;102107.41;5067409;28;20053;-31
2023/06/27 05:52:25;;;;;;;2.03;0.90;;;;;;;27.06;42.32;102113.50;5047227;28;20095;-31
2023/06/27 05:54:52;;;;;;;2.38;0.93;;;;;;;27.07;42.59;102107.03;5048238;28;20087;-31
2023/06/27 05:57:19;;;;;;;1.40;0.60;;;;;;;27.08;42.54;102104.13;5047450;28;20478;-31
2023/06/27 05:59:45;;;;;;;1.42;0.95;;;;;;;27.09;42.27;102099.53;5048938;28;20210;-31
2023/06/27 06:02:12;;;;;;;1.40;1.05;;;;;;;27.11;42.78;102104.84;5045880;28;20049;-31
2023/06/27 06:04:39;;;;;;;1.83;0.90;;;;;;;27.12;42.28;102104.63;5047090;28;20053;-31
2023/06/27 06:07:05;;;;;;;1.52;0.73;;;;;;;27.13;42.66;102114.47;5048020;28;20095;-31
2023/06/27 06:09:32;;;;;;;1.73;0.80;;;;;;;27.14;42.41;102109.91;5044234;28;20048;-32
2023/06/27 06:11:59;;;;;;;3.72;1.05;;;;;;;27.15;42.01;102114.31;5048197;28;20067;-32
2023/06/27 06:14:26;;;;;;;0.57;0.50;;;;;;;27.15;42.41;102114.31;5048776;28;20164;-33
2023/06/27 06:17:00;;;;;;;3.80;1.00;;;;;;;27.15;42.24;102109.72;5041189;28;20447;-33
2023/06/27 06:19:29;;;;;;;2.55;0.98;;;;;;;27.15;42.33;102115.16;5039145;28;20059;-31
2023/06/27 06:21:56;;;;;;;1.52;0.85;;;;;;;27.16;42.57;102114.13;5056140;28;20115;-31
2023/06/27 06:24:23;;;;;;;0.90;0.55;;;;;;;27.17;41.77;102120.41;5037917;28;20146;-32
2023/06/27 06:26:50;;;;;;;1.75;0.75;;;;;;;27.17;42.23;102125.84;5039636;28;20061;-31
2023/06/27 06:29:17;;;;;;;2.03;0.80;;;;;;;27.18;42.14;102122.13;5035241;28;20131;-31
2023/06/27 06:31:44;;;;;;;2.60;0.70;;;;;;;27.18;41.97;102133.00;5037040;28;20084;-31
2023/06/27 06:34:11;;;;;;;1.67;0.75;;;;;;;27.17;41.88;102126.69;5032553;28;20065;-31
2023/06/27 06:36:38;;;;;;;2.08;0.93;;;;;;;27.19;42.62;102134.69;5036697;28;20385;-31
2023/06/27 06:39:04;;;;;;;2.22;0.80;;;;;;;27.20;42.33;102129.06;5034148;28;20405;-31
2023/06/27 06:41:31;;;;;;;2.13;0.60;;;;;;;27.21;42.07;102138.91;5037645;28;20068;-31
2023/06/27 06:43:57;;;;;;;2.00;0.73;;;;;;;27.21;42.07;102129.91;5039706;28;20057;-31
2023/06/27 06:46:24;;;;;;;2.20;0.90;;;;;;;27.22;42.75;102139.78;5037563;28;20049;-31
2023/06/27 06:48:51;;;;;;;1.48;0.80;;;;;;;27.23;42.15;102138.75;5035938;28;20114;-30
2023/06/27 06:51:18;;;;;;;1.90;0.85;;;;;;;27.23;42.57;102138.75;5035721;28;20056;-31
2023/06/27 06:53:45;;;;;;;1.25;0.65;;;;;;;27.23;42.31;102141.47;5039471;28;20053;-31
2023/06/27 06:56:11;;;;;;;1.80;0.80;;;;;;;27.24;42.29;102144.00;5042016;28;20095;-31
2023/06/27 06:58:38;;;;;;;1.73;0.73;;;;;;;27.25;41.95;102133.94;5035359;28;20129;-31
2023/06/27 07:01:05;;;;;;;1.00;0.73;;;;;;;27.25;42.33;102136.66;5035969;28;20079;-31
2023/06/27 07:03:33;;;;;;;1.08;0.73;;;;;;;27.26;42.35;102143.84;5036897;28;20100;-31
2023/06/27 07:06:00;;;;;;;1.27;0.80;;;;;;;27.25;42.20;102137.50;5035395;28;20120;-31
2023/06/27 07:08:26;;;;;;;1.50;0.60;;;;;;;27.25;42.14;102136.66;5035578;28;20052;-31
2023/06/27 07:10:53;;;;;;;1.30;0.80;;;;;;;27.25;42.03;102133.94;5037267;28;20099;-32
2023/06/27 07:13:20;;;;;;;1.95;0.55;;;;;;;27.25;42.25;102137.50;5035208;28;20085;-31
2023/06/27 07:15:46;;;;;;;2.85;0.90;;;;;;;27.26;42.15;102133.78;5032538;28;20096;-31
2023/06/27 07:18:13;;;;;;;1.73;0.85;;;;;;;27.28;41.96;102136.31;5040994;28;20073;-31
2023/06/27 07:20:39;;;;;;;1.70;1.13;;;;;;;27.28;42.08;102137.16;5041267;28;20041;-31
2023/06/27 07:23:06;;;;;;;0.95;0.80;;;;;;;27.30;42.14;102135.09;5042732;28;20092;-31
2023/06/27 07:25:33;;;;;;;1.92;0.85;;;;;;;27.31;42.05;102130.50;5043395;28;20049;-31
2023/06/27 07:28:01;;;;;;;1.85;0.93;;;;;;;27.33;42.06;102135.75;5042211;28;20060;-31
2023/06/27 07:30:27;;;;;;;2.25;0.60;;;;;;;27.34;42.24;102134.72;5042407;28;20512;-32
2023/06/27 07:32:54;;;;;;;1.23;0.60;;;;;;;27.35;41.81;102142.72;5039007;28;20123;-31
2023/06/27 07:35:21;;;;;;;2.08;0.65;;;;;;;27.37;42.38;102131.63;5043518;28;20061;-31
2023/06/27 07:37:47;;;;;;;0.75;0.55;;;;;;;27.37;41.99;102140.63;5043218;28;20053;-31
2023/06/27 07:40:14;;;;;;;1.90;0.77;;;;;;;27.37;41.56;102140.63;5041282;28;20041;-31
2023/06/27 07:42:40;;;;;;;1.50;0.73;;;;;;;27.39;42.18;102135.03;5039370;28;20100;-31
2023/06/27 07:45:09;;;;;;;1.63;1.00;;;;;;;27.39;42.25;102133.16;5042763;28;20137;-31
2023/06/27 07:47:36;;;;;;;1.55;0.77;;;;;;;27.40;41.91;102123.94;5041803;28;20088;-31
2023/06/27 07:50:03;;;;;;;1.63;0.60;;;;;;;27.42;41.72;102121.03;5043033;28;20357;-31
2023/06/27 07:52:30;;;;;;;2.17;0.70;;;;;;;27.42;41.68;102119.16;5039603;28;20410;-32
2023/06/27 07:54:57;;;;;;;1.58;0.73;;;;;;;27.44;42.20;102130.72;5043103;28;20092;-31
2023/06/27 07:57:23;;;;;;;0.80;0.50;;;;;;;27.43;41.95;102126.31;5041560;28;20083;-31
2023/06/27 07:59:50;;;;;;;1.90;1.17;;;;;;;27.45;41.58;102129.66;5042899;28;20100;-31
2023/06/27 08:02:16;;;;;;;1.55;0.73;;;;;;;27.46;41.94;102134.09;5036585;28;20502;-31
2023/06/27 08:04:43;;;;;;;1.80;0.70;;;;;;;27.49;42.07;102135.59;5030349;28;20087;-31
2023/06/27 08:07:10;;;;;;;1.90;0.63;;;;;;;27.49;42.01;102136.44;5036836;28;20053;-31
2023/06/27 08:09:36;;;;;;;1.38;0.70;;;;;;;27.51;41.91;102144.44;5042428;28;20098;-31
2023/06/27 08:12:06;;;;;;;1.35;0.70;;;;;;;27.52;41.75;102143.41;5038865;28;20084;-31
2023/06/27 08:14:32;;;;;;;2.53;0.55;;;;;;;27.53;41.45;102140.47;5041046;28;20341;-31
2023/06/27 08:16:59;;;;;;;1.42;0.60;;;;;;;27.54;41.57;102135.91;5041238;28;20115;-31
2023/06/27 08:19:27;;;;;;;1.42;0.60;;;;;;;27.54;41.60;102136.75;5038560;28;20492;-31
2023/06/27 08:21:53;;;;;;;0.88;0.52;;;;;;;27.54;41.35;102134.03;5042939;28;20045;-31
2023/06/27 08:24:20;;;;;;;1.48;0.75;;;;;;;27.55;41.42;102132.13;5034996;28;20127;-31
2023/06/27 08:26:49;;;;;;;1.65;0.60;;;;;;;27.55;41.41;102143.88;5041838;28;20504;-32
2023/06/27 08:29:17;;;;;;;0.80;0.60;;;;;;;27.55;41.80;102135.72;5038087;28;20389;-31
2023/06/27 08:31:43;;;;;;;1.38;0.60;;;;;;;27.55;41.53;102135.72;5038983;28;20048;-31
2023/06/27 08:34:10;;;;;;;1.58;1.02;;;;;;;27.56;41.41;102129.22;5034938;28;20057;-31
2023/06/27 08:36:37;;;;;;;2.20;0.93;;;;;;;27.58;41.18;102136.34;5044997;28;20448;-31
2023/06/27 08:39:03;;;;;;;0.80;0.60;;;;;;;27.58;41.28;102130.91;5037395;28;20052;-31
2023/06/27 08:41:30;;;;;;;0.68;0.57;;;;;;;27.58;41.91;102130.91;5038455;28;20045;-31
2023/06/27 08:43:57;;;;;;;1.63;0.80;;;;;;;27.58;41.46;102136.34;5044249;28;20045;-31
2023/06/27 08:46:27;;;;;;;0.93;0.50;;;;;;;27.58;41.72;102136.34;5038675;28;20048;-31
2023/06/27 08:48:57;;;;;;;2.50;0.50;;;;;;;27.58;41.51;102139.06;5043976;28;20044;-31
2023/06/27 08:51:25;;;;;;;1.08;0.60;;;;;;;27.58;41.45;102131.78;5042794;28;20073;-31
2023/06/27 08:53:57;;;;;;;0.82;0.50;;;;;;;27.58;41.82;102136.34;5043913;28;20527;-31
2023/06/27 08:56:26;;;;;;;1.33;0.60;;;;;;;27.58;40.99;102137.22;5039916;28;20387;-31
2023/06/27 08:59:01;;;;;;;2.22;1.02;;;;;;;27.59;41.96;102144.34;5040038;28;20053;-31
2023/06/27 09:01:33;;;;;;;0.90;0.47;;;;;;;27.59;41.48;102143.50;5042546;28;20092;-31
2023/06/27 09:04:01;;;;;;;1.35;0.65;;;;;;;27.59;41.22;102138.91;5041526;28;20045;-32
2023/06/27 09:06:28;;;;;;;0.85;0.50;;;;;;;27.60;41.30;102147.91;5041061;28;20060;-31
2023/06/27 09:08:55;;;;;;;1.40;0.60;;;;;;;27.59;41.52;102146.25;5041238;28;20045;-31
2023/06/27 09:11:22;;;;;;;2.13;0.85;;;;;;;27.59;41.35;102149.81;5039459;28;20073;-31
2023/06/27 09:13:48;;;;;;;1.08;0.65;;;;;;;27.60;41.63;102156.09;5041986;28;20089;-31
2023/06/27 09:16:15;;;;;;;2.20;0.60;;;;;;;27.59;41.45;102162.59;5042030;28;20084;-31
2023/06/27 09:18:46;;;;;;;1.33;0.60;;;;;;;27.59;41.10;102157.97;5042489;28;20132;-31
2023/06/27 09:21:14;;;;;;;1.23;0.57;;;;;;;27.59;41.26;102157.97;5042078;28;20345;-32
2023/06/27 09:23:41;;;;;;;1.30;0.55;;;;;;;27.60;41.60;102159.66;5044234;28;20095;-31
2023/06/27 09:26:12;;;;;;;1.30;0.68;;;;;;;27.60;41.53;102150.66;5038346;28;20049;-31
2023/06/27 09:28:47;;;;;;;1.02;0.60;;;;;;;27.61;41.04;102157.78;5040078;28;20128;-31
2023/06/27 09:31:16;;;;;;;1.23;0.70;;;;;;;27.62;41.60;102157.63;5033333;28;20069;-32
2023/06/27 09:33:43;;;;;;;0.90;0.40;;;;;;;27.61;41.35;102153.16;5042244;28;20041;-31
2023/06/27 09:36:28;;;;;;;1.10;0.35;;;;;;;27.62;41.07;102156.75;5039679;28;20053;-33
2023/06/27 09:39:05;;;;;;;2.13;0.73;;;;;;;27.62;41.19;102162.19;5040792;28;20119;-32
2023/06/27 09:41:44;;;;;;;1.20;0.50;;;;;;;27.62;41.46;102154.00;5038345;28;20358;-32
2023/06/27 09:44:18;;;;;;;1.05;0.60;;;;;;;27.62;41.89;102152.16;5038868;28;20056;-32
2023/06/27 09:46:46;;;;;;;0.90;0.60;;;;;;;27.64;41.77;102160.13;5038963;28;20049;-32
2023/06/27 09:49:14;;;;;;;0.68;0.50;;;;;;;27.63;41.44;102161.19;5040663;28;20057;-31
2023/06/27 09:51:46;;;;;;;1.23;0.52;;;;;;;27.64;41.18;102154.69;5042193;28;20535;-31
2023/06/27 09:54:13;;;;;;;1.42;0.68;;;;;;;27.65;41.58;102164.53;5044368;28;20225;-31
2023/06/27 09:57:00;;;;;;;0.98;0.40;;;;;;;27.67;41.41;102159.78;5038317;28;20279;-33
2023/06/27 09:59:26;;;;;;;1.25;0.63;;;;;;;27.67;41.44;102173.41;5037504;28;20144;-31
2023/06/27 10:01:54;;;;;;;1.20;1.08;;;;;;;27.67;41.57;102166.06;5046688;28;20050;-31
2023/06/27 10:04:21;;;;;;;1.70;0.52;;;;;;;27.69;40.72;102171.31;5040791;28;20077;-32
2023/06/27 10:06:51;;;;;;;0.95;0.40;;;;;;;27.70;41.62;102167.56;5034890;28;20057;-31
2023/06/27 10:09:17;;;;;;;1.98;0.60;;;;;;;27.71;41.14;102170.09;5050193;28;20107;-32
2023/06/27 10:11:45;;;;;;;0.80;0.50;;;;;;;27.72;41.51;102157.31;5050135;28;20159;-31
2023/06/27 10:14:12;;;;;;;1.50;0.68;;;;;;;27.73;41.34;102150.84;5050098;28;20124;-32
2023/06/27 10:16:39;;;;;;;0.82;0.60;;;;;;;27.74;40.63;102158.00;5050457;28;20115;-32
2023/06/27 10:19:06;;;;;;;0.90;0.52;;;;;;;27.74;40.62;102158.88;5049374;28;20115;-31
2023/06/27 10:21:32;;;;;;;1.52;0.60;;;;;;;27.76;40.89;102151.34;5046368;28;20080;-32
2023/06/27 10:24:02;;;;;;;1.02;0.70;;;;;;;27.77;40.98;102149.47;5041574;28;20445;-31
2023/06/27 10:26:29;;;;;;;1.85;0.60;;;;;;;27.78;41.11;102148.47;5031469;28;20111;-31
2023/06/27 10:28:56;;;;;;;1.13;0.55;;;;;;;27.78;40.83;102153.91;5041495;28;20250;-32
2023/06/27 10:31:42;;;;;;;0.93;0.60;;;;;;;27.78;41.20;102157.47;5035132;28;20049;-31
2023/06/27 10:34:20;;;;;;;1.85;0.57;;;;;;;27.80;40.52;102154.53;5039573;28;20057;-31
2023/06/27 10:36:58;;;;;;;1.73;0.60;;;;;;;27.81;40.75;102153.50;5037746;28;20053;-31
2023/06/27 10:39:31;;;;;;;1.20;0.50;;;;;;;27.83;41.22;102151.47;5037148;28;20345;-33
2023/06/27 10:42:06;;;;;;;1.33;0.50;;;;;;;27.85;40.82;102151.25;5035025;28;20180;-31
2023/06/27 10:45:00;;;;;;;0.60;0.47;;;;;;;27.85;40.48;102145.81;5035467;28;20093;-31
2023/06/27 10:47:29;;;;;;;1.73;0.60;;;;;;;27.87;40.87;102163.66;5037094;28;20049;-32
2023/06/27 10:50:06;;;;;;;0.93;0.52;;;;;;;27.88;40.67;102161.78;5039472;28;20076;-31
2023/06/27 10:52:33;;;;;;;0.80;0.50;;;;;;;27.90;40.86;102152.41;5040641;28;20049;-31
2023/06/27 10:55:20;;;;;;;1.33;0.60;;;;;;;27.89;40.87;102156.13;5036842;28;20100;-32
2023/06/27 10:57:56;;;;;;;0.82;0.43;;;;;;;27.93;40.58;102152.00;5032804;28;20091;-32
2023/06/27 11:00:33;;;;;;;1.27;0.55;;;;;;;27.94;40.92;102150.13;5040345;28;20459;-31
2023/06/27 11:03:03;;;;;;;1.58;0.70;;;;;;;27.96;41.18;102158.97;5040094;28;20350;-31
2023/06/27 11:05:47;;;;;;;0.95;0.40;;;;;;;27.96;40.83;102156.25;5036218;28;20132;-31
2023/06/27 11:08:18;;;;;;;1.27;0.63;;;;;;;27.98;41.13;102152.31;5038934;28;20049;-31
2023/06/27 11:11:08;;;;;;;0.85;0.50;;;;;;;27.99;41.00;102161.31;5036006;28;20445;-32
2023/06/27 11:13:38;;;;;;;1.20;0.50;;;;;;;28.01;41.40;102159.25;5039718;28;20064;-31
2023/06/27 11:16:05;;;;;;;0.65;0.50;;;;;;;28.01;40.89;102157.34;5035200;28;20079;-32
2023/06/27 11:18:33;;;;;;;1.40;0.57;;;;;;;28.02;41.08;102161.78;5034765;28;20057;-31
2023/06/27 11:21:00;;;;;;;1.80;0.52;;;;;;;28.03;40.26;102160.75;5034521;28;20055;-31
2023/06/27 11:23:29;;;;;;;0.98;0.57;;;;;;;28.03;40.60;102163.47;5036524;28;20053;-32
2023/06/27 11:25:56;;;;;;;1.08;0.50;;;;;;;28.04;40.60;102154.25;5041059;28;20457;-31
2023/06/27 11:28:23;;;;;;;2.13;0.57;;;;;;;28.05;41.08;102153.22;5036185;28;20052;-31
2023/06/27 11:30:57;;;;;;;1.15;0.52;;;;;;;28.05;40.35;102152.38;5033390;28;20077;-32